createdAt,value
2018-07-01T00:00:39.986Z,18.20
2018-07-01T00:03:08.334Z,18.10
2018-07-01T00:08:04.741Z,18.00
2018-07-01T00:10:33.064Z,18.00
2018-07-01T00:15:29.460Z,17.80
2018-07-01T00:17:57.760Z,17.70
2018-07-01T00:20:26.068Z,17.70
2018-07-01T00:22:54.412Z,17.60
2018-07-01T00:25:22.786Z,17.60
2018-07-01T00:27:51.121Z,17.50
2018-07-01T00:30:19.453Z,17.40
2018-07-01T00:32:47.784Z,17.40
2018-07-01T00:35:16.105Z,17.30
2018-07-01T00:37:44.409Z,17.30
2018-07-01T00:40:12.756Z,17.20
2018-07-01T00:42:41.060Z,17.20
2018-07-01T00:45:09.376Z,17.20
2018-07-01T00:47:37.764Z,17.10
2018-07-01T00:50:06.196Z,17.10
2018-07-01T00:52:34.508Z,17.10
2018-07-01T00:55:02.884Z,17.00
2018-07-01T00:57:31.185Z,17.00
2018-07-01T00:59:59.513Z,16.90
2018-07-01T01:02:27.844Z,16.90
2018-07-01T01:04:56.812Z,16.90
2018-07-01T01:07:25.144Z,16.80
2018-07-01T01:09:53.979Z,16.80
2018-07-01T01:12:22.309Z,16.80
2018-07-01T01:14:50.609Z,16.70
2018-07-01T01:17:18.928Z,16.70
2018-07-01T01:19:47.244Z,16.70
2018-07-01T01:22:15.556Z,16.70
2018-07-01T01:24:43.872Z,16.60
2018-07-01T01:27:12.188Z,16.60
2018-07-01T01:29:40.484Z,16.60
2018-07-01T01:32:08.888Z,16.50
2018-07-01T01:34:37.208Z,16.50
2018-07-01T01:37:05.564Z,16.50
2018-07-01T01:39:36.676Z,16.40
2018-07-01T01:42:14.293Z,16.30
2018-07-01T01:47:22.012Z,16.30
2018-07-01T01:52:29.968Z,16.20
2018-07-01T01:55:03.614Z,16.20
2018-07-01T01:57:36.320Z,16.10
2018-07-01T02:00:09.281Z,16.10
2018-07-01T02:03:42.205Z,16.10
2018-07-01T02:06:13.536Z,16.00
2018-07-01T02:11:13.053Z,16.00
2018-07-01T02:13:44.193Z,16.00
2018-07-01T02:16:16.070Z,15.90
2018-07-01T02:18:44.398Z,15.90
2018-07-01T02:21:12.737Z,15.90
2018-07-01T02:23:44.381Z,15.80
2018-07-01T02:26:12.709Z,15.80
2018-07-01T02:28:41.033Z,15.80
2018-07-01T02:31:09.354Z,15.70
2018-07-01T02:33:37.636Z,15.70
2018-07-01T02:36:05.965Z,15.70
2018-07-01T02:38:34.305Z,15.60
2018-07-01T02:41:02.661Z,15.60
2018-07-01T02:43:30.965Z,15.60
2018-07-01T02:45:59.293Z,15.50
2018-07-01T02:48:27.621Z,15.50
2018-07-01T02:50:55.928Z,15.50
2018-07-01T02:53:24.234Z,15.40
2018-07-01T02:55:52.533Z,15.40
2018-07-01T02:58:20.849Z,15.30
2018-07-01T03:00:49.160Z,15.30
2018-07-01T03:03:17.472Z,15.30
2018-07-01T03:05:45.780Z,15.20
2018-07-01T03:08:14.090Z,15.20
2018-07-01T03:13:10.433Z,15.10
2018-07-01T03:15:38.724Z,15.10
2018-07-01T03:18:07.776Z,15.00
2018-07-01T03:20:36.088Z,15.00
2018-07-01T03:23:04.408Z,15.00
2018-07-01T03:25:32.737Z,15.00
2018-07-01T03:28:01.036Z,14.90
2018-07-01T03:32:57.400Z,14.90
2018-07-01T03:35:25.725Z,14.80
2018-07-01T03:37:54.017Z,14.80
2018-07-01T03:40:22.329Z,14.80
2018-07-01T03:42:50.689Z,14.80
2018-07-01T03:45:19.020Z,14.80
2018-07-01T03:47:47.321Z,14.70
2018-07-01T03:50:15.666Z,14.70
2018-07-01T03:52:44.005Z,14.70
2018-07-01T03:55:12.333Z,14.70
2018-07-01T03:57:40.657Z,14.60
2018-07-01T04:00:08.993Z,14.70
2018-07-01T04:02:37.298Z,14.60
2018-07-01T04:05:05.766Z,14.70
2018-07-01T04:07:34.100Z,14.70
2018-07-01T04:10:02.402Z,14.60
2018-07-01T04:12:30.697Z,14.60
2018-07-01T04:14:59.033Z,14.60
2018-07-01T04:17:27.317Z,14.70
2018-07-01T04:19:55.709Z,14.70
2018-07-01T04:22:24.037Z,14.70
2018-07-01T04:24:52.341Z,14.70
2018-07-01T04:27:20.656Z,14.80
2018-07-01T04:29:48.968Z,14.80
2018-07-01T04:32:17.264Z,14.90
2018-07-01T04:34:45.586Z,15.00
2018-07-01T04:37:13.912Z,15.00
2018-07-01T04:39:42.208Z,15.00
2018-07-01T04:44:38.605Z,15.20
2018-07-01T04:47:06.905Z,15.30
2018-07-01T04:49:35.201Z,15.40
2018-07-01T04:52:03.564Z,15.50
2018-07-01T04:54:31.852Z,15.50
2018-07-01T04:57:00.172Z,15.60
2018-07-01T04:59:28.513Z,15.70
2018-07-01T05:01:56.875Z,15.80
2018-07-01T05:04:25.140Z,15.90
2018-07-01T05:06:53.456Z,16.00
2018-07-01T05:09:21.760Z,16.10
2018-07-01T05:11:50.058Z,16.20
2018-07-01T05:14:18.396Z,16.30
2018-07-01T05:16:46.689Z,16.40
2018-07-01T05:21:43.040Z,16.50
2018-07-01T05:24:11.405Z,16.60
2018-07-01T05:26:39.733Z,16.70
2018-07-01T05:29:08.045Z,16.70
2018-07-01T05:31:36.368Z,16.80
2018-07-01T05:34:04.724Z,16.80
2018-07-01T05:36:33.025Z,16.80
2018-07-01T05:39:01.315Z,16.90
2018-07-01T05:41:29.649Z,16.90
2018-07-01T05:43:57.968Z,16.90
2018-07-01T05:46:26.268Z,17.00
2018-07-01T05:48:54.601Z,17.10
2018-07-01T05:51:22.921Z,17.20
2018-07-01T05:53:51.250Z,17.40
2018-07-01T05:56:19.576Z,17.50
2018-07-01T05:58:47.906Z,17.70
2018-07-01T06:01:16.209Z,17.80
2018-07-01T06:03:44.548Z,17.90
2018-07-01T06:06:12.874Z,18.00
2018-07-01T06:08:41.248Z,18.00
2018-07-01T06:11:09.527Z,18.20
2018-07-01T06:13:37.826Z,18.20
2018-07-01T06:16:06.176Z,18.30
2018-07-01T06:18:34.506Z,18.30
2018-07-01T06:21:09.561Z,18.50
2018-07-01T06:23:37.849Z,18.60
2018-07-01T06:26:06.220Z,18.60
2018-07-01T06:28:34.537Z,18.70
2018-07-01T06:31:02.965Z,18.80
2018-07-01T06:33:31.260Z,18.80
2018-07-01T06:35:59.582Z,19.00
2018-07-01T06:38:27.889Z,19.00
2018-07-01T06:40:56.229Z,19.10
2018-07-01T06:43:24.526Z,19.20
2018-07-01T06:45:52.857Z,19.30
2018-07-01T06:48:21.184Z,19.30
2018-07-01T06:50:49.481Z,19.20
2018-07-01T06:53:17.797Z,19.30
2018-07-01T06:55:46.103Z,19.20
2018-07-01T06:58:14.453Z,19.30
2018-07-01T07:00:42.801Z,19.30
2018-07-01T07:03:11.100Z,19.40
2018-07-01T07:05:39.401Z,19.50
2018-07-01T07:08:07.764Z,19.60
2018-07-01T07:10:36.037Z,19.70
2018-07-01T07:13:04.380Z,19.80
2018-07-01T07:15:32.669Z,19.90
2018-07-01T07:18:00.993Z,20.10
2018-07-01T07:22:57.341Z,20.30
2018-07-01T07:25:25.697Z,20.50
2018-07-01T07:27:53.992Z,20.60
2018-07-01T07:32:50.341Z,20.70
2018-07-01T07:35:18.673Z,20.80
2018-07-01T07:37:47.004Z,20.90
2018-07-01T07:40:15.310Z,21.00
2018-07-01T07:42:43.652Z,21.00
2018-07-01T07:45:12.006Z,21.10
2018-07-01T07:47:40.271Z,21.20
2018-07-01T07:50:08.685Z,21.20
2018-07-01T07:52:36.996Z,21.20
2018-07-01T07:55:05.449Z,21.40
2018-07-01T07:57:33.785Z,21.40
2018-07-01T08:00:02.125Z,21.40
2018-07-01T08:02:30.438Z,21.40
2018-07-01T08:04:58.749Z,21.40
2018-07-01T08:07:27.138Z,21.30
2018-07-01T08:09:55.512Z,21.40
2018-07-01T08:12:23.844Z,21.50
2018-07-01T08:14:52.180Z,21.60
2018-07-01T08:17:20.512Z,21.70
2018-07-01T08:19:48.836Z,21.70
2018-07-01T08:22:17.196Z,21.70
2018-07-01T08:24:45.524Z,21.80
2018-07-01T08:27:13.825Z,21.70
2018-07-01T08:29:42.156Z,21.60
2018-07-01T08:32:10.557Z,21.50
2018-07-01T08:34:38.913Z,21.50
2018-07-01T08:37:07.189Z,21.60
2018-07-01T08:39:35.502Z,21.60
2018-07-01T08:42:24.328Z,21.60
2018-07-01T08:44:53.592Z,21.70
2018-07-01T08:47:21.974Z,21.70
2018-07-01T08:49:50.344Z,21.60
2018-07-01T08:52:18.684Z,21.60
2018-07-01T08:54:46.989Z,21.60
2018-07-01T08:57:17.374Z,21.70
2018-07-01T08:59:46.561Z,21.70
2018-07-01T09:02:15.221Z,21.80
2018-07-01T09:04:43.738Z,21.80
2018-07-01T09:07:12.136Z,21.70
2018-07-01T09:09:40.581Z,21.70
2018-07-01T09:12:08.907Z,21.60
2018-07-01T09:14:37.321Z,21.50
2018-07-01T09:17:05.952Z,21.60
2018-07-01T09:19:34.277Z,21.60
2018-07-01T09:22:02.612Z,21.70
2018-07-01T09:24:30.956Z,21.90
2018-07-01T09:26:59.511Z,22.00
2018-07-01T09:29:27.848Z,22.20
2018-07-01T09:31:56.604Z,22.30
2018-07-01T09:34:26.106Z,22.40
2018-07-01T09:36:54.889Z,22.50
2018-07-01T09:39:23.516Z,22.70
2018-07-01T09:41:52.993Z,22.80
2018-07-01T09:44:21.296Z,22.90
2018-07-01T09:46:49.634Z,23.00
2018-07-01T09:49:17.953Z,23.10
2018-07-01T09:51:46.302Z,23.10
2018-07-01T09:54:14.621Z,23.20
2018-07-01T09:56:43.006Z,23.20
2018-07-01T09:59:11.353Z,23.10
2018-07-01T10:01:39.680Z,23.10
2018-07-01T10:04:07.989Z,23.10
2018-07-01T10:06:36.329Z,23.00
2018-07-01T10:09:07.928Z,23.00
2018-07-01T10:11:36.473Z,23.00
2018-07-01T10:14:05.470Z,23.20
2018-07-01T10:16:33.796Z,23.40
2018-07-01T10:19:02.101Z,23.40
2018-07-01T10:21:30.549Z,23.40
2018-07-01T10:23:58.864Z,23.40
2018-07-01T10:26:27.233Z,23.50
2018-07-01T10:29:15.961Z,23.40
2018-07-01T10:31:45.086Z,23.50
2018-07-01T10:34:14.269Z,23.50
2018-07-01T10:36:42.625Z,23.60
2018-07-01T10:39:13.487Z,23.70
2018-07-01T10:41:41.839Z,23.80
2018-07-01T10:44:10.150Z,23.80
2018-07-01T10:46:38.488Z,23.90
2018-07-01T10:49:06.924Z,24.00
2018-07-01T10:51:35.533Z,24.00
2018-07-01T10:54:03.887Z,23.90
2018-07-01T10:56:32.217Z,23.90
2018-07-01T10:59:00.600Z,23.90
2018-07-01T11:01:29.057Z,23.80
2018-07-01T11:03:57.441Z,24.00
2018-07-01T11:06:25.792Z,24.00
2018-07-01T11:08:54.084Z,24.00
2018-07-01T11:11:22.376Z,24.10
2018-07-01T11:13:50.722Z,24.20
2018-07-01T11:16:19.048Z,24.20
2018-07-01T11:18:47.381Z,24.30
2018-07-01T11:21:15.701Z,24.40
2018-07-01T11:23:44.062Z,24.50
2018-07-01T11:28:40.448Z,24.70
2018-07-01T11:31:08.793Z,24.70
2018-07-01T11:33:37.125Z,24.70
2018-07-01T11:36:05.501Z,24.80
2018-07-01T11:38:33.807Z,24.80
2018-07-01T11:41:02.110Z,24.80
2018-07-01T11:43:30.449Z,24.90
2018-07-01T11:45:58.769Z,24.90
2018-07-01T11:48:27.098Z,24.90
2018-07-01T11:50:55.418Z,24.90
2018-07-01T11:55:51.761Z,25.10
2018-07-01T12:00:48.201Z,25.10
2018-07-01T12:03:16.498Z,24.90
2018-07-01T12:05:44.838Z,24.80
2018-07-01T12:08:13.169Z,24.70
2018-07-01T12:10:41.499Z,24.70
2018-07-01T12:13:09.828Z,24.70
2018-07-01T12:15:38.174Z,24.80
2018-07-01T12:18:06.509Z,24.70
2018-07-01T12:20:34.841Z,24.70
2018-07-01T12:23:03.212Z,24.90
2018-07-01T12:25:31.548Z,25.00
2018-07-01T12:27:59.884Z,25.10
2018-07-01T12:30:28.222Z,25.20
2018-07-01T12:32:56.572Z,25.30
2018-07-01T12:35:24.929Z,25.30
2018-07-01T12:37:53.263Z,25.20
2018-07-01T12:40:21.596Z,25.20
2018-07-01T12:42:49.941Z,25.10
2018-07-01T12:45:18.304Z,25.10
2018-07-01T12:47:46.685Z,25.10
2018-07-01T12:50:14.929Z,25.20
2018-07-01T12:52:43.265Z,25.30
2018-07-01T12:55:11.577Z,25.40
2018-07-01T12:57:39.869Z,25.40
2018-07-01T13:00:08.854Z,25.40
2018-07-01T13:02:37.145Z,25.40
2018-07-01T13:05:05.518Z,25.40
2018-07-01T13:07:33.865Z,25.30
2018-07-01T13:10:02.202Z,25.20
2018-07-01T13:12:30.510Z,25.10
2018-07-01T13:14:58.937Z,25.10
2018-07-01T13:17:27.248Z,25.20
2018-07-01T13:19:55.572Z,25.30
2018-07-01T13:22:23.869Z,25.40
2018-07-01T13:24:52.195Z,25.40
2018-07-01T13:27:20.552Z,25.50
2018-07-01T13:29:48.911Z,25.50
2018-07-01T13:32:18.379Z,25.60
2018-07-01T13:34:46.680Z,25.60
2018-07-01T13:37:15.025Z,25.80
2018-07-01T13:39:43.316Z,25.90
2018-07-01T13:42:11.681Z,25.90
2018-07-01T13:44:40.025Z,25.90
2018-07-01T13:47:08.324Z,25.90
2018-07-01T13:49:36.662Z,25.90
2018-07-01T13:52:04.973Z,26.00
2018-07-01T13:54:33.308Z,26.00
2018-07-01T13:57:01.697Z,26.00
2018-07-01T13:59:29.986Z,26.10
2018-07-01T14:01:58.295Z,26.10
2018-07-01T14:04:26.596Z,26.00
2018-07-01T14:06:54.936Z,26.00
2018-07-01T14:09:23.237Z,26.00
2018-07-01T14:11:51.570Z,26.00
2018-07-01T14:14:19.902Z,25.90
2018-07-01T14:16:48.249Z,25.90
2018-07-01T14:19:16.556Z,25.90
2018-07-01T14:21:44.879Z,26.00
2018-07-01T14:24:13.188Z,26.00
2018-07-01T14:26:41.533Z,26.10
2018-07-01T14:29:09.850Z,26.20
2018-07-01T14:31:38.181Z,26.30
2018-07-01T14:34:06.558Z,26.20
2018-07-01T14:36:34.883Z,26.10
2018-07-01T14:39:04.344Z,26.00
2018-07-01T14:41:32.670Z,25.90
2018-07-01T14:44:00.980Z,25.80
2018-07-01T14:46:29.293Z,25.80
2018-07-01T14:48:57.625Z,25.90
2018-07-01T14:51:25.929Z,25.90
2018-07-01T14:53:54.292Z,25.90
2018-07-01T14:56:22.598Z,25.90
2018-07-01T14:58:51.020Z,25.90
2018-07-01T15:01:19.352Z,25.90
2018-07-01T15:03:47.793Z,26.00
2018-07-01T15:06:16.098Z,25.90
2018-07-01T15:08:44.433Z,25.80
2018-07-01T15:11:12.811Z,25.90
2018-07-01T15:13:41.141Z,25.90
2018-07-01T15:16:09.446Z,25.80
2018-07-01T15:18:37.753Z,25.80
2018-07-01T15:21:06.105Z,25.80
2018-07-01T15:23:34.420Z,25.80
2018-07-01T15:26:02.757Z,25.80
2018-07-01T15:28:31.069Z,25.80
2018-07-01T15:30:59.421Z,25.90
2018-07-01T15:33:27.769Z,26.00
2018-07-01T15:35:56.114Z,26.10
2018-07-01T15:38:24.473Z,26.00
2018-07-01T15:40:52.792Z,26.00
2018-07-01T15:43:21.132Z,25.90
2018-07-01T15:45:49.474Z,25.80
2018-07-01T15:48:17.802Z,25.80
2018-07-01T15:50:46.277Z,25.70
2018-07-01T15:53:14.660Z,25.70
2018-07-01T15:55:42.984Z,25.70
2018-07-01T15:58:11.296Z,25.70
2018-07-01T16:00:39.629Z,25.60
2018-07-01T16:03:07.940Z,25.60
2018-07-01T16:05:36.329Z,25.60
2018-07-01T16:08:04.711Z,25.50
2018-07-01T16:10:33.036Z,25.50
2018-07-01T16:13:01.385Z,25.60
2018-07-01T16:15:29.685Z,25.60
2018-07-01T16:17:58.024Z,25.60
2018-07-01T16:20:26.329Z,25.60
2018-07-01T16:22:54.665Z,25.50
2018-07-01T16:25:28.286Z,25.50
2018-07-01T16:28:01.869Z,25.40
2018-07-01T16:32:58.278Z,25.40
2018-07-01T16:35:26.649Z,25.40
2018-07-01T16:37:54.957Z,25.40
2018-07-01T16:40:23.308Z,25.40
2018-07-01T16:42:51.627Z,25.40
2018-07-01T16:45:19.963Z,25.50
2018-07-01T16:47:48.300Z,25.50
2018-07-01T16:50:16.632Z,25.50
2018-07-01T16:52:44.938Z,25.50
2018-07-01T16:55:13.247Z,25.50
2018-07-01T16:57:41.577Z,25.60
2018-07-01T17:00:10.129Z,25.60
2018-07-01T17:02:38.510Z,25.70
2018-07-01T17:05:06.867Z,25.70
2018-07-01T17:07:35.195Z,25.80
2018-07-01T17:10:03.568Z,25.90
2018-07-01T17:12:31.905Z,25.90
2018-07-01T17:15:00.249Z,26.00
2018-07-01T17:17:28.537Z,26.10
2018-07-01T17:19:56.866Z,26.30
2018-07-01T17:22:25.196Z,26.50
2018-07-01T17:24:53.525Z,26.70
2018-07-01T17:27:21.817Z,26.80
2018-07-01T17:29:50.203Z,26.80
2018-07-01T17:32:23.868Z,26.80
2018-07-01T17:34:52.169Z,26.80
2018-07-01T17:37:20.492Z,26.80
2018-07-01T17:39:48.801Z,26.70
2018-07-01T17:42:17.125Z,26.60
2018-07-01T17:44:45.461Z,26.60
2018-07-01T17:47:13.757Z,26.60
2018-07-01T17:49:42.049Z,26.50
2018-07-01T17:52:10.382Z,26.50
2018-07-01T17:54:38.689Z,26.30
2018-07-01T17:57:07.110Z,26.30
2018-07-01T18:02:03.565Z,26.00
2018-07-01T18:04:31.860Z,26.10
2018-07-01T18:07:00.208Z,26.20
2018-07-01T18:09:28.576Z,26.20
2018-07-01T18:11:56.865Z,26.10
2018-07-01T18:14:25.199Z,26.00
2018-07-01T18:16:53.520Z,26.00
2018-07-01T18:19:21.865Z,26.00
2018-07-01T18:22:09.759Z,25.90
2018-07-01T18:24:42.852Z,25.90
2018-07-01T18:26:46.824Z,25.70
2018-07-01T18:29:18.698Z,25.60
2018-07-01T18:31:43.573Z,25.60
2018-07-01T18:34:11.820Z,25.50
2018-07-01T18:36:40.181Z,25.40
2018-07-01T18:39:09.012Z,25.30
2018-07-01T18:41:37.379Z,25.20
2018-07-01T18:44:05.964Z,25.10
2018-07-01T18:46:34.279Z,24.90
2018-07-01T18:49:02.627Z,24.90
2018-07-01T18:51:30.946Z,24.80
2018-07-01T18:53:59.264Z,24.70
2018-07-01T18:56:27.578Z,24.50
2018-07-01T18:58:55.946Z,24.30
2018-07-01T19:01:24.252Z,24.00
2018-07-01T19:03:52.587Z,23.70
2018-07-01T19:06:20.879Z,23.50
2018-07-01T19:08:49.176Z,23.40
2018-07-01T19:11:17.534Z,23.20
2018-07-01T19:13:45.899Z,23.00
2018-07-01T19:16:14.221Z,22.70
2018-07-01T19:18:42.526Z,22.50
2018-07-01T19:21:10.885Z,22.30
2018-07-01T19:23:39.560Z,22.20
2018-07-01T19:26:08.568Z,22.10
2018-07-01T19:28:37.224Z,21.90
2018-07-01T19:31:05.641Z,21.80
2018-07-01T19:33:35.226Z,21.60
2018-07-01T19:36:03.579Z,21.50
2018-07-01T19:38:31.958Z,21.40
2018-07-01T19:41:06.922Z,21.30
2018-07-01T19:43:35.521Z,21.20
2018-07-01T19:46:03.623Z,21.00
2018-07-01T19:48:31.953Z,20.90
2018-07-01T19:51:00.326Z,20.80
2018-07-01T19:53:28.628Z,20.70
2018-07-01T19:55:56.920Z,20.60
2018-07-01T19:58:25.265Z,20.50
2018-07-01T20:00:54.384Z,20.40
2018-07-01T20:03:22.802Z,20.30
2018-07-01T20:05:51.025Z,20.30
2018-07-01T20:08:19.451Z,20.20
2018-07-01T20:10:47.685Z,20.00
2018-07-01T20:13:16.464Z,20.00
2018-07-01T20:15:44.786Z,19.90
2018-07-01T20:20:41.129Z,19.80
2018-07-01T20:23:09.468Z,19.70
2018-07-01T20:25:37.853Z,19.70
2018-07-01T20:28:06.150Z,19.60
2018-07-01T20:30:34.514Z,19.60
2018-07-01T20:33:02.844Z,19.50
2018-07-01T20:35:31.274Z,19.40
2018-07-01T20:37:59.593Z,19.30
2018-07-01T20:42:55.960Z,19.30
2018-07-01T20:45:24.313Z,19.20
2018-07-01T20:47:52.622Z,19.20
2018-07-01T20:50:20.974Z,19.10
2018-07-01T20:52:49.267Z,19.00
2018-07-01T20:55:17.617Z,18.90
2018-07-01T20:57:45.954Z,18.90
2018-07-01T21:00:14.223Z,18.80
2018-07-01T21:02:42.540Z,18.70
2018-07-01T21:05:11.168Z,18.70
2018-07-01T21:07:39.448Z,18.60
2018-07-01T21:10:07.794Z,18.60
2018-07-01T21:12:36.132Z,18.50
2018-07-01T21:15:04.537Z,18.40
2018-07-01T21:17:32.873Z,18.40
2018-07-01T21:20:01.165Z,18.30
2018-07-01T21:22:29.500Z,18.20
2018-07-01T21:24:57.837Z,18.10
2018-07-01T21:27:26.164Z,18.10
2018-07-01T21:29:54.475Z,18.00
2018-07-01T21:32:22.820Z,18.00
2018-07-01T21:34:51.143Z,17.80
2018-07-01T21:37:19.468Z,17.70
2018-07-01T21:42:15.867Z,17.60
2018-07-01T21:44:44.223Z,17.50
2018-07-01T21:47:12.552Z,17.40
2018-07-01T21:49:40.864Z,17.30
2018-07-01T21:52:09.260Z,17.20
2018-07-01T21:54:37.572Z,17.10
2018-07-01T21:57:05.954Z,17.00
2018-07-01T21:59:34.405Z,16.90
2018-07-01T22:02:02.746Z,16.80
2018-07-01T22:04:31.061Z,16.70
2018-07-01T22:07:00.329Z,16.70
2018-07-01T22:09:29.617Z,16.60
2018-07-01T22:12:09.689Z,16.60
2018-07-01T22:14:49.216Z,16.50
2018-07-01T22:17:17.569Z,16.50
2018-07-01T22:19:45.929Z,16.40
2018-07-01T22:22:14.288Z,16.40
2018-07-01T22:24:42.599Z,16.40
2018-07-01T22:27:10.944Z,16.30
2018-07-01T22:29:39.248Z,16.30
2018-07-01T22:32:07.592Z,16.20
2018-07-01T22:34:35.920Z,16.20
2018-07-01T22:37:04.270Z,16.10
2018-07-01T22:39:32.590Z,16.00
2018-07-01T22:42:01.919Z,15.90
2018-07-01T22:44:30.576Z,15.90
2018-07-01T22:46:58.932Z,15.80
2018-07-01T22:49:27.240Z,15.70
2018-07-01T22:51:55.557Z,15.60
2018-07-01T22:54:23.889Z,15.50
2018-07-01T22:56:52.196Z,15.50
2018-07-01T22:59:20.532Z,15.40
2018-07-01T23:03:00.941Z,15.40
2018-07-01T23:05:29.256Z,15.30
2018-07-01T23:07:57.632Z,15.20
2018-07-01T23:10:26.972Z,15.20
2018-07-01T23:12:56.092Z,15.20
2018-07-01T23:15:24.425Z,15.20
2018-07-01T23:17:52.760Z,15.10
2018-07-01T23:20:21.104Z,15.10
2018-07-01T23:22:49.432Z,15.10
2018-07-01T23:25:17.768Z,15.10
2018-07-01T23:27:46.665Z,15.00
2018-07-01T23:30:15.010Z,15.00
2018-07-01T23:32:43.715Z,15.00
2018-07-01T23:35:12.062Z,15.00
2018-07-01T23:37:40.469Z,14.90
2018-07-01T23:40:09.609Z,14.80
2018-07-01T23:42:44.475Z,14.80
2018-07-01T23:45:14.060Z,14.70
2018-07-01T23:47:42.622Z,14.70
2018-07-01T23:50:10.989Z,14.70
2018-07-01T23:52:39.408Z,14.70
2018-07-01T23:55:08.072Z,14.60
2018-07-01T23:57:36.385Z,14.60
